sensor_id;sensor_type;location;lat;lon;timestamp;temperature;humidity
3256;DHT22;1640;48.504;9.224;2022-10-31T00:01:01;10.70;99.90
3256;DHT22;1640;48.504;9.224;2022-10-31T00:03:29;10.70;99.90
3256;DHT22;1640;48.504;9.224;2022-10-31T00:05:56;10.70;99.90
3256;DHT22;1640;48.504;9.224;2022-10-31T00:08:24;10.60;99.90
3256;DHT22;1640;48.504;9.224;2022-10-31T00:10:51;10.60;99.90
3256;DHT22;1640;48.504;9.224;2022-10-31T00:13:20;10.60;99.90
3256;DHT22;1640;48.504;9.224;2022-10-31T00:15:48;10.50;99.90
3256;DHT22;1640;48.504;9.224;2022-10-31T00:18:15;10.50;99.90
3256;DHT22;1640;48.504;9.224;2022-10-31T00:20:43;10.50;99.90
3256;DHT22;1640;48.504;9.224;2022-10-31T00:23:11;10.60;99.90
3256;DHT22;1640;48.504;9.224;2022-10-31T00:25:39;10.60;99.90
3256;DHT22;1640;48.504;9.224;2022-10-31T00:28:09;10.50;99.90
3256;DHT22;1640;48.504;9.224;2022-10-31T00:30:39;10.50;99.90
3256;DHT22;1640;48.504;9.224;2022-10-31T00:33:07;10.50;99.90
3256;DHT22;1640;48.504;9.224;2022-10-31T00:35:34;10.40;99.90
3256;DHT22;1640;48.504;9.224;2022-10-31T00:38:02;10.40;99.90
3256;DHT22;1640;48.504;9.224;2022-10-31T00:40:29;10.50;99.90
3256;DHT22;1640;48.504;9.224;2022-10-31T00:42:56;10.50;99.90
3256;DHT22;1640;48.504;9.224;2022-10-31T00:45:24;10.40;99.90
3256;DHT22;1640;48.504;9.224;2022-10-31T00:47:53;10.30;99.90
3256;DHT22;1640;48.504;9.224;2022-10-31T00:50:20;10.30;99.90
3256;DHT22;1640;48.504;9.224;2022-10-31T00:52:47;10.20;99.90
3256;DHT22;1640;48.504;9.224;2022-10-31T00:55:15;10.20;99.90
3256;DHT22;1640;48.504;9.224;2022-10-31T00:57:42;10.20;99.90
3256;DHT22;1640;48.504;9.224;2022-10-31T01:00:11;10.20;99.90
3256;DHT22;1640;48.504;9.224;2022-10-31T01:02:38;10.20;99.90
3256;DHT22;1640;48.504;9.224;2022-10-31T01:05:07;10.20;99.90
3256;DHT22;1640;48.504;9.224;2022-10-31T01:07:35;10.20;99.90
3256;DHT22;1640;48.504;9.224;2022-10-31T01:10:03;10.30;99.90
3256;DHT22;1640;48.504;9.224;2022-10-31T01:12:36;10.20;99.90
3256;DHT22;1640;48.504;9.224;2022-10-31T01:15:04;10.20;99.90
3256;DHT22;1640;48.504;9.224;2022-10-31T01:17:32;10.30;99.90
3256;DHT22;1640;48.504;9.224;2022-10-31T01:20:00;10.30;99.90
3256;DHT22;1640;48.504;9.224;2022-10-31T01:22:28;10.30;99.90
3256;DHT22;1640;48.504;9.224;2022-10-31T01:24:56;10.30;99.90
3256;DHT22;1640;48.504;9.224;2022-10-31T01:27:23;10.30;99.90
3256;DHT22;1640;48.504;9.224;2022-10-31T01:29:51;10.30;99.90
3256;DHT22;1640;48.504;9.224;2022-10-31T01:32:18;10.30;99.90
3256;DHT22;1640;48.504;9.224;2022-10-31T01:34:45;10.30;99.90
3256;DHT22;1640;48.504;9.224;2022-10-31T01:37:13;10.30;99.90
3256;DHT22;1640;48.504;9.224;2022-10-31T01:39:42;10.30;99.90
3256;DHT22;1640;48.504;9.224;2022-10-31T01:42:17;10.20;99.90
3256;DHT22;1640;48.504;9.224;2022-10-31T01:44:54;10.20;99.90
3256;DHT22;1640;48.504;9.224;2022-10-31T01:47:36;10.10;99.90
3256;DHT22;1640;48.504;9.224;2022-10-31T01:50:10;10.10;99.90
3256;DHT22;1640;48.504;9.224;2022-10-31T01:52:41;10.10;99.90
3256;DHT22;1640;48.504;9.224;2022-10-31T01:55:13;10.10;99.90
3256;DHT22;1640;48.504;9.224;2022-10-31T01:57:46;10.20;99.90
3256;DHT22;1640;48.504;9.224;2022-10-31T02:00:14;10.10;99.90
3256;DHT22;1640;48.504;9.224;2022-10-31T02:02:42;10.10;99.90
3256;DHT22;1640;48.504;9.224;2022-10-31T02:05:15;10.10;99.90
3256;DHT22;1640;48.504;9.224;2022-10-31T02:07:48;10.10;99.90
3256;DHT22;1640;48.504;9.224;2022-10-31T02:10:18;10.10;99.90
3256;DHT22;1640;48.504;9.224;2022-10-31T02:12:46;10.00;99.90
3256;DHT22;1640;48.504;9.224;2022-10-31T02:15:14;10.00;99.90
3256;DHT22;1640;48.504;9.224;2022-10-31T02:17:41;9.90;99.90
3256;DHT22;1640;48.504;9.224;2022-10-31T02:20:15;9.90;99.90
3256;DHT22;1640;48.504;9.224;2022-10-31T02:23:15;9.80;99.90
3256;DHT22;1640;48.504;9.224;2022-10-31T02:26:11;9.80;99.90
3256;DHT22;1640;48.504;9.224;2022-10-31T02:29:05;9.80;99.90
3256;DHT22;1640;48.504;9.224;2022-10-31T02:31:41;9.80;99.90
3256;DHT22;1640;48.504;9.224;2022-10-31T02:34:17;9.80;99.90
3256;DHT22;1640;48.504;9.224;2022-10-31T02:36:52;9.90;99.90
3256;DHT22;1640;48.504;9.224;2022-10-31T02:39:24;9.90;99.90
3256;DHT22;1640;48.504;9.224;2022-10-31T02:42:02;9.80;99.90
3256;DHT22;1640;48.504;9.224;2022-10-31T02:44:37;9.80;99.90
3256;DHT22;1640;48.504;9.224;2022-10-31T02:47:11;9.80;99.90
3256;DHT22;1640;48.504;9.224;2022-10-31T02:49:45;9.70;99.90
3256;DHT22;1640;48.504;9.224;2022-10-31T02:52:20;9.70;99.90
3256;DHT22;1640;48.504;9.224;2022-10-31T02:54:48;9.70;99.90
3256;DHT22;1640;48.504;9.224;2022-10-31T02:57:18;9.70;99.90
3256;DHT22;1640;48.504;9.224;2022-10-31T02:59:50;9.70;99.90
3256;DHT22;1640;48.504;9.224;2022-10-31T03:02:30;9.70;99.90
3256;DHT22;1640;48.504;9.224;2022-10-31T03:05:21;9.60;99.90
3256;DHT22;1640;48.504;9.224;2022-10-31T03:07:57;9.60;99.90
3256;DHT22;1640;48.504;9.224;2022-10-31T03:10:35;9.50;99.90
3256;DHT22;1640;48.504;9.224;2022-10-31T03:13:08;9.50;99.90
3256;DHT22;1640;48.504;9.224;2022-10-31T03:15:38;9.50;99.90
3256;DHT22;1640;48.504;9.224;2022-10-31T03:18:11;9.50;99.90
3256;DHT22;1640;48.504;9.224;2022-10-31T03:20:42;9.40;99.90
3256;DHT22;1640;48.504;9.224;2022-10-31T03:23:13;9.40;99.90
3256;DHT22;1640;48.504;9.224;2022-10-31T03:25:42;9.40;99.90
3256;DHT22;1640;48.504;9.224;2022-10-31T03:28:12;9.50;99.90
3256;DHT22;1640;48.504;9.224;2022-10-31T03:30:42;9.40;99.90
3256;DHT22;1640;48.504;9.224;2022-10-31T03:33:16;9.40;99.90
3256;DHT22;1640;48.504;9.224;2022-10-31T03:35:47;9.40;99.90
3256;DHT22;1640;48.504;9.224;2022-10-31T03:38:15;9.40;99.90
3256;DHT22;1640;48.504;9.224;2022-10-31T03:40:46;9.40;99.90
3256;DHT22;1640;48.504;9.224;2022-10-31T03:43:18;9.40;99.90
3256;DHT22;1640;48.504;9.224;2022-10-31T03:45:47;9.40;99.90
3256;DHT22;1640;48.504;9.224;2022-10-31T03:48:18;9.40;99.90
3256;DHT22;1640;48.504;9.224;2022-10-31T03:50:52;9.40;99.90
3256;DHT22;1640;48.504;9.224;2022-10-31T03:53:26;9.40;99.90
3256;DHT22;1640;48.504;9.224;2022-10-31T03:55:59;9.40;99.90
3256;DHT22;1640;48.504;9.224;2022-10-31T03:58:33;9.40;99.90
3256;DHT22;1640;48.504;9.224;2022-10-31T04:01:05;9.40;99.90
3256;DHT22;1640;48.504;9.224;2022-10-31T04:03:36;9.30;99.90
3256;DHT22;1640;48.504;9.224;2022-10-31T04:06:08;9.30;99.90
3256;DHT22;1640;48.504;9.224;2022-10-31T04:08:42;9.30;99.90
3256;DHT22;1640;48.504;9.224;2022-10-31T04:11:11;9.30;99.90
3256;DHT22;1640;48.504;9.224;2022-10-31T04:13:41;9.20;99.90
3256;DHT22;1640;48.504;9.224;2022-10-31T04:16:12;9.10;99.90
3256;DHT22;1640;48.504;9.224;2022-10-31T04:18:42;9.10;99.90
3256;DHT22;1640;48.504;9.224;2022-10-31T04:21:09;9.10;99.90
3256;DHT22;1640;48.504;9.224;2022-10-31T04:24:13;9.10;99.90
3256;DHT22;1640;48.504;9.224;2022-10-31T04:26:41;9.00;99.90
3256;DHT22;1640;48.504;9.224;2022-10-31T04:29:08;9.00;99.90
3256;DHT22;1640;48.504;9.224;2022-10-31T04:31:35;8.90;99.90
3256;DHT22;1640;48.504;9.224;2022-10-31T04:34:04;8.90;99.90
3256;DHT22;1640;48.504;9.224;2022-10-31T04:36:33;8.90;99.90
3256;DHT22;1640;48.504;9.224;2022-10-31T04:39:00;8.80;99.90
3256;DHT22;1640;48.504;9.224;2022-10-31T04:41:28;8.80;99.90
3256;DHT22;1640;48.504;9.224;2022-10-31T04:43:55;8.80;99.90
3256;DHT22;1640;48.504;9.224;2022-10-31T04:46:43;8.70;99.90
3256;DHT22;1640;48.504;9.224;2022-10-31T04:49:11;8.70;99.90
3256;DHT22;1640;48.504;9.224;2022-10-31T04:51:39;8.70;99.90
3256;DHT22;1640;48.504;9.224;2022-10-31T04:54:06;8.70;99.90
3256;DHT22;1640;48.504;9.224;2022-10-31T04:56:34;8.60;99.90
3256;DHT22;1640;48.504;9.224;2022-10-31T04:59:01;8.70;99.90
3256;DHT22;1640;48.504;9.224;2022-10-31T05:01:32;8.80;99.90
3256;DHT22;1640;48.504;9.224;2022-10-31T05:04:00;8.80;99.90
3256;DHT22;1640;48.504;9.224;2022-10-31T05:06:28;8.80;99.90
3256;DHT22;1640;48.504;9.224;2022-10-31T05:08:56;8.70;99.90
3256;DHT22;1640;48.504;9.224;2022-10-31T05:11:23;8.70;99.90
3256;DHT22;1640;48.504;9.224;2022-10-31T05:13:51;8.70;99.90
3256;DHT22;1640;48.504;9.224;2022-10-31T05:16:18;8.80;99.90
3256;DHT22;1640;48.504;9.224;2022-10-31T05:18:45;8.80;99.90
3256;DHT22;1640;48.504;9.224;2022-10-31T05:21:13;8.80;99.90
3256;DHT22;1640;48.504;9.224;2022-10-31T05:23:42;8.80;99.90
3256;DHT22;1640;48.504;9.224;2022-10-31T05:26:09;8.80;99.90
3256;DHT22;1640;48.504;9.224;2022-10-31T05:28:36;8.70;99.90
3256;DHT22;1640;48.504;9.224;2022-10-31T05:31:04;8.80;99.90
3256;DHT22;1640;48.504;9.224;2022-10-31T05:33:31;8.70;99.90
3256;DHT22;1640;48.504;9.224;2022-10-31T05:35:59;8.70;99.90
3256;DHT22;1640;48.504;9.224;2022-10-31T05:38:26;8.70;99.90
3256;DHT22;1640;48.504;9.224;2022-10-31T05:40:56;8.70;99.90
3256;DHT22;1640;48.504;9.224;2022-10-31T05:43:26;8.70;99.90
3256;DHT22;1640;48.504;9.224;2022-10-31T05:45:53;8.70;99.90
3256;DHT22;1640;48.504;9.224;2022-10-31T05:48:21;8.60;99.90
3256;DHT22;1640;48.504;9.224;2022-10-31T05:50:49;8.60;99.90
3256;DHT22;1640;48.504;9.224;2022-10-31T05:53:16;8.60;99.90
3256;DHT22;1640;48.504;9.224;2022-10-31T05:56:09;8.60;99.90
3256;DHT22;1640;48.504;9.224;2022-10-31T05:58:36;8.60;99.90
3256;DHT22;1640;48.504;9.224;2022-10-31T06:01:04;8.60;99.90
3256;DHT22;1640;48.504;9.224;2022-10-31T06:03:31;8.60;99.90
3256;DHT22;1640;48.504;9.224;2022-10-31T06:05:59;8.60;99.90
3256;DHT22;1640;48.504;9.224;2022-10-31T06:08:26;8.60;99.90
3256;DHT22;1640;48.504;9.224;2022-10-31T06:10:53;8.60;99.90
3256;DHT22;1640;48.504;9.224;2022-10-31T06:13:23;8.60;99.90
3256;DHT22;1640;48.504;9.224;2022-10-31T06:15:50;8.60;99.90
3256;DHT22;1640;48.504;9.224;2022-10-31T06:18:17;8.60;99.90
3256;DHT22;1640;48.504;9.224;2022-10-31T06:20:45;8.60;99.90
3256;DHT22;1640;48.504;9.224;2022-10-31T06:23:12;8.60;99.90
3256;DHT22;1640;48.504;9.224;2022-10-31T06:25:40;8.60;99.90
3256;DHT22;1640;48.504;9.224;2022-10-31T06:28:07;8.60;99.90
3256;DHT22;1640;48.504;9.224;2022-10-31T06:30:36;8.60;99.90
3256;DHT22;1640;48.504;9.224;2022-10-31T06:33:04;8.60;99.90
3256;DHT22;1640;48.504;9.224;2022-10-31T06:35:32;8.60;99.90
3256;DHT22;1640;48.504;9.224;2022-10-31T06:37:59;8.60;99.90
3256;DHT22;1640;48.504;9.224;2022-10-31T06:40:27;8.70;99.90
3256;DHT22;1640;48.504;9.224;2022-10-31T06:42:58;8.60;99.90
3256;DHT22;1640;48.504;9.224;2022-10-31T06:45:26;8.70;99.90
3256;DHT22;1640;48.504;9.224;2022-10-31T06:47:55;8.70;99.90
3256;DHT22;1640;48.504;9.224;2022-10-31T06:50:23;8.70;99.90
3256;DHT22;1640;48.504;9.224;2022-10-31T06:52:51;8.70;99.90
3256;DHT22;1640;48.504;9.224;2022-10-31T06:55:19;8.80;99.90
3256;DHT22;1640;48.504;9.224;2022-10-31T06:57:51;8.80;99.90
3256;DHT22;1640;48.504;9.224;2022-10-31T07:00:19;8.80;99.90
3256;DHT22;1640;48.504;9.224;2022-10-31T07:02:55;8.90;99.90
3256;DHT22;1640;48.504;9.224;2022-10-31T07:05:23;8.90;99.90
3256;DHT22;1640;48.504;9.224;2022-10-31T07:07:54;9.00;99.90
3256;DHT22;1640;48.504;9.224;2022-10-31T07:10:23;9.10;99.90
3256;DHT22;1640;48.504;9.224;2022-10-31T07:12:54;9.20;99.90
3256;DHT22;1640;48.504;9.224;2022-10-31T07:15:22;9.30;99.90
3256;DHT22;1640;48.504;9.224;2022-10-31T07:17:49;9.30;99.90
3256;DHT22;1640;48.504;9.224;2022-10-31T07:20:18;9.40;99.90
3256;DHT22;1640;48.504;9.224;2022-10-31T07:22:46;9.60;99.90
3256;DHT22;1640;48.504;9.224;2022-10-31T07:25:14;9.60;99.90
3256;DHT22;1640;48.504;9.224;2022-10-31T07:27:42;9.70;99.90
3256;DHT22;1640;48.504;9.224;2022-10-31T07:30:11;9.80;99.90
3256;DHT22;1640;48.504;9.224;2022-10-31T07:32:39;9.80;99.90
3256;DHT22;1640;48.504;9.224;2022-10-31T07:35:08;9.90;99.90
3256;DHT22;1640;48.504;9.224;2022-10-31T07:37:37;10.10;99.90
3256;DHT22;1640;48.504;9.224;2022-10-31T07:40:06;10.20;99.90
3256;DHT22;1640;48.504;9.224;2022-10-31T07:42:35;10.30;99.90
3256;DHT22;1640;48.504;9.224;2022-10-31T07:45:03;10.50;99.90
3256;DHT22;1640;48.504;9.224;2022-10-31T07:47:38;10.60;99.90
3256;DHT22;1640;48.504;9.224;2022-10-31T07:50:06;10.80;99.90
3256;DHT22;1640;48.504;9.224;2022-10-31T07:52:34;10.90;99.90
3256;DHT22;1640;48.504;9.224;2022-10-31T07:55:03;11.00;99.90
3256;DHT22;1640;48.504;9.224;2022-10-31T07:57:31;11.00;99.90
3256;DHT22;1640;48.504;9.224;2022-10-31T07:59:59;11.10;99.90
3256;DHT22;1640;48.504;9.224;2022-10-31T08:02:26;11.20;99.90
3256;DHT22;1640;48.504;9.224;2022-10-31T08:04:53;11.30;99.90
3256;DHT22;1640;48.504;9.224;2022-10-31T08:07:21;11.40;99.90
3256;DHT22;1640;48.504;9.224;2022-10-31T08:09:48;11.60;99.90
3256;DHT22;1640;48.504;9.224;2022-10-31T08:12:17;11.70;99.90
3256;DHT22;1640;48.504;9.224;2022-10-31T08:14:45;11.70;99.90
3256;DHT22;1640;48.504;9.224;2022-10-31T08:17:12;11.70;99.90
3256;DHT22;1640;48.504;9.224;2022-10-31T08:19:40;11.80;99.90
3256;DHT22;1640;48.504;9.224;2022-10-31T08:22:08;11.90;99.90
3256;DHT22;1640;48.504;9.224;2022-10-31T08:24:35;11.90;99.90
3256;DHT22;1640;48.504;9.224;2022-10-31T08:27:03;12.00;99.90
3256;DHT22;1640;48.504;9.224;2022-10-31T08:29:32;12.00;99.90
3256;DHT22;1640;48.504;9.224;2022-10-31T08:31:59;12.10;99.90
3256;DHT22;1640;48.504;9.224;2022-10-31T08:34:26;12.20;99.90
3256;DHT22;1640;48.504;9.224;2022-10-31T08:36:54;12.30;2.90
3256;DHT22;1640;48.504;9.224;2022-10-31T08:39:21;12.30;2.30
3256;DHT22;1640;48.504;9.224;2022-10-31T08:41:49;12.60;3.90
3256;DHT22;1640;48.504;9.224;2022-10-31T08:44:17;12.80;9.60
3256;DHT22;1640;48.504;9.224;2022-10-31T08:46:45;13.00;12.80
3256;DHT22;1640;48.504;9.224;2022-10-31T08:49:13;13.10;22.80
3256;DHT22;1640;48.504;9.224;2022-10-31T08:51:41;13.00;27.70
3256;DHT22;1640;48.504;9.224;2022-10-31T08:54:09;13.20;25.20
3256;DHT22;1640;48.504;9.224;2022-10-31T08:56:36;13.40;28.10
3256;DHT22;1640;48.504;9.224;2022-10-31T08:59:04;13.60;27.60
3256;DHT22;1640;48.504;9.224;2022-10-31T09:01:31;13.80;29.80
3256;DHT22;1640;48.504;9.224;2022-10-31T09:04:00;13.90;38.70
3256;DHT22;1640;48.504;9.224;2022-10-31T09:06:27;13.90;41.80
3256;DHT22;1640;48.504;9.224;2022-10-31T09:08:55;13.80;39.90
3256;DHT22;1640;48.504;9.224;2022-10-31T09:11:22;13.80;43.00
3256;DHT22;1640;48.504;9.224;2022-10-31T09:13:49;13.90;44.90
3256;DHT22;1640;48.504;9.224;2022-10-31T09:16:18;14.00;47.90
3256;DHT22;1640;48.504;9.224;2022-10-31T09:18:46;14.00;45.60
3256;DHT22;1640;48.504;9.224;2022-10-31T09:21:15;14.10;46.40
3256;DHT22;1640;48.504;9.224;2022-10-31T09:23:42;14.30;47.50
3256;DHT22;1640;48.504;9.224;2022-10-31T09:26:09;14.40;49.70
3256;DHT22;1640;48.504;9.224;2022-10-31T09:28:37;14.60;54.20
3256;DHT22;1640;48.504;9.224;2022-10-31T09:31:04;14.70;54.20
3256;DHT22;1640;48.504;9.224;2022-10-31T09:33:32;14.80;57.50
3256;DHT22;1640;48.504;9.224;2022-10-31T09:36:00;14.90;56.10
3256;DHT22;1640;48.504;9.224;2022-10-31T09:38:31;15.20;59.00
3256;DHT22;1640;48.504;9.224;2022-10-31T09:41:07;15.40;58.90
3256;DHT22;1640;48.504;9.224;2022-10-31T09:43:43;15.50;63.30
3256;DHT22;1640;48.504;9.224;2022-10-31T09:46:22;15.60;62.00
3256;DHT22;1640;48.504;9.224;2022-10-31T09:49:08;15.80;63.30
3256;DHT22;1640;48.504;9.224;2022-10-31T09:51:42;15.90;64.20
3256;DHT22;1640;48.504;9.224;2022-10-31T09:54:15;16.10;64.00
3256;DHT22;1640;48.504;9.224;2022-10-31T09:56:43;16.20;66.30
3256;DHT22;1640;48.504;9.224;2022-10-31T09:59:16;16.40;67.30
3256;DHT22;1640;48.504;9.224;2022-10-31T10:01:47;16.40;67.00
3256;DHT22;1640;48.504;9.224;2022-10-31T10:04:30;16.60;67.00
3256;DHT22;1640;48.504;9.224;2022-10-31T10:07:01;16.80;68.50
3256;DHT22;1640;48.504;9.224;2022-10-31T10:09:32;16.80;68.90
3256;DHT22;1640;48.504;9.224;2022-10-31T10:12:07;17.00;69.00
3256;DHT22;1640;48.504;9.224;2022-10-31T10:14:46;17.00;69.90
3256;DHT22;1640;48.504;9.224;2022-10-31T10:17:26;17.20;70.30
3256;DHT22;1640;48.504;9.224;2022-10-31T10:20:16;17.40;70.90
3256;DHT22;1640;48.504;9.224;2022-10-31T10:22:54;17.40;71.30
3256;DHT22;1640;48.504;9.224;2022-10-31T10:25:28;17.40;71.30
3256;DHT22;1640;48.504;9.224;2022-10-31T10:28:04;17.60;71.30
3256;DHT22;1640;48.504;9.224;2022-10-31T10:30:38;17.90;71.30
3256;DHT22;1640;48.504;9.224;2022-10-31T10:33:10;18.20;72.20
3256;DHT22;1640;48.504;9.224;2022-10-31T10:35:42;18.10;72.10
3256;DHT22;1640;48.504;9.224;2022-10-31T10:38:17;18.20;72.30
3256;DHT22;1640;48.504;9.224;2022-10-31T10:40:48;18.10;72.10
3256;DHT22;1640;48.504;9.224;2022-10-31T10:43:22;18.20;72.50
3256;DHT22;1640;48.504;9.224;2022-10-31T10:45:52;18.20;72.50
3256;DHT22;1640;48.504;9.224;2022-10-31T10:48:43;18.00;72.20
3256;DHT22;1640;48.504;9.224;2022-10-31T10:51:23;18.10;72.50
3256;DHT22;1640;48.504;9.224;2022-10-31T10:54:06;18.20;72.50
3256;DHT22;1640;48.504;9.224;2022-10-31T10:56:49;18.30;72.30
3256;DHT22;1640;48.504;9.224;2022-10-31T10:59:20;18.70;72.30
3256;DHT22;1640;48.504;9.224;2022-10-31T11:01:49;18.80;72.20
3256;DHT22;1640;48.504;9.224;2022-10-31T11:04:29;18.90;72.10
3256;DHT22;1640;48.504;9.224;2022-10-31T11:06:59;19.10;72.10
3256;DHT22;1640;48.504;9.224;2022-10-31T11:09:26;19.00;71.90
3256;DHT22;1640;48.504;9.224;2022-10-31T11:11:56;19.10;71.80
3256;DHT22;1640;48.504;9.224;2022-10-31T11:14:24;19.10;71.60
3256;DHT22;1640;48.504;9.224;2022-10-31T11:16:55;19.20;71.30
3256;DHT22;1640;48.504;9.224;2022-10-31T11:19:25;19.10;71.10
3256;DHT22;1640;48.504;9.224;2022-10-31T11:21:53;19.10;71.20
3256;DHT22;1640;48.504;9.224;2022-10-31T11:24:23;18.90;71.90
3256;DHT22;1640;48.504;9.224;2022-10-31T11:27:09;19.00;71.80
3256;DHT22;1640;48.504;9.224;2022-10-31T11:29:38;19.00;71.90
3256;DHT22;1640;48.504;9.224;2022-10-31T11:32:17;18.90;71.80
3256;DHT22;1640;48.504;9.224;2022-10-31T11:34:47;19.20;71.20
3256;DHT22;1640;48.504;9.224;2022-10-31T11:37:18;19.30;71.10
3256;DHT22;1640;48.504;9.224;2022-10-31T11:39:49;19.40;70.60
3256;DHT22;1640;48.504;9.224;2022-10-31T11:42:22;19.30;70.50
3256;DHT22;1640;48.504;9.224;2022-10-31T11:44:51;19.30;70.80
3256;DHT22;1640;48.504;9.224;2022-10-31T11:47:29;19.50;71.20
3256;DHT22;1640;48.504;9.224;2022-10-31T11:50:00;19.60;71.50
3256;DHT22;1640;48.504;9.224;2022-10-31T11:52:30;19.70;70.60
3256;DHT22;1640;48.504;9.224;2022-10-31T11:55:00;19.80;70.80
3256;DHT22;1640;48.504;9.224;2022-10-31T11:57:32;19.90;71.20
3256;DHT22;1640;48.504;9.224;2022-10-31T12:00:01;20.00;71.30
3256;DHT22;1640;48.504;9.224;2022-10-31T12:02:30;20.00;71.50
3256;DHT22;1640;48.504;9.224;2022-10-31T12:05:02;19.90;71.80
3256;DHT22;1640;48.504;9.224;2022-10-31T12:07:31;20.00;71.90
3256;DHT22;1640;48.504;9.224;2022-10-31T12:09:59;20.00;71.60
3256;DHT22;1640;48.504;9.224;2022-10-31T12:12:46;19.90;71.60
3256;DHT22;1640;48.504;9.224;2022-10-31T12:15:29;19.90;71.80
3256;DHT22;1640;48.504;9.224;2022-10-31T12:18:18;19.90;71.80
3256;DHT22;1640;48.504;9.224;2022-10-31T12:20:58;19.90;71.80
3256;DHT22;1640;48.504;9.224;2022-10-31T12:23:38;20.00;71.80
3256;DHT22;1640;48.504;9.224;2022-10-31T12:26:16;20.00;71.60
3256;DHT22;1640;48.504;9.224;2022-10-31T12:29:05;20.00;71.60
3256;DHT22;1640;48.504;9.224;2022-10-31T12:31:44;19.80;71.60
3256;DHT22;1640;48.504;9.224;2022-10-31T12:37:11;19.60;71.50
3256;DHT22;1640;48.504;9.224;2022-10-31T12:39:46;19.70;71.20
3256;DHT22;1640;48.504;9.224;2022-10-31T12:42:24;19.60;71.30
3256;DHT22;1640;48.504;9.224;2022-10-31T12:45:28;19.50;71.30
3256;DHT22;1640;48.504;9.224;2022-10-31T12:48:26;19.50;71.60
3256;DHT22;1640;48.504;9.224;2022-10-31T12:51:00;19.40;71.60
3256;DHT22;1640;48.504;9.224;2022-10-31T12:53:38;19.50;71.60
3256;DHT22;1640;48.504;9.224;2022-10-31T12:56:24;19.60;71.80
3256;DHT22;1640;48.504;9.224;2022-10-31T12:59:01;19.60;71.80
3256;DHT22;1640;48.504;9.224;2022-10-31T13:01:36;19.60;71.80
3256;DHT22;1640;48.504;9.224;2022-10-31T13:04:12;19.50;71.80
3256;DHT22;1640;48.504;9.224;2022-10-31T13:06:44;19.50;71.80
3256;DHT22;1640;48.504;9.224;2022-10-31T13:09:18;19.50;71.80
3256;DHT22;1640;48.504;9.224;2022-10-31T13:11:48;19.60;71.80
3256;DHT22;1640;48.504;9.224;2022-10-31T13:14:24;19.70;71.60
3256;DHT22;1640;48.504;9.224;2022-10-31T13:16:55;19.70;71.60
3256;DHT22;1640;48.504;9.224;2022-10-31T13:19:25;19.70;71.80
3256;DHT22;1640;48.504;9.224;2022-10-31T13:21:59;19.70;71.80
3256;DHT22;1640;48.504;9.224;2022-10-31T13:24:33;19.70;71.50
3256;DHT22;1640;48.504;9.224;2022-10-31T13:27:11;19.60;71.60
3256;DHT22;1640;48.504;9.224;2022-10-31T13:29:43;19.80;71.60
3256;DHT22;1640;48.504;9.224;2022-10-31T13:32:12;20.00;71.50
3256;DHT22;1640;48.504;9.224;2022-10-31T13:34:42;20.10;71.50
3256;DHT22;1640;48.504;9.224;2022-10-31T13:37:16;20.10;71.50
3256;DHT22;1640;48.504;9.224;2022-10-31T13:39:58;20.10;71.50
3256;DHT22;1640;48.504;9.224;2022-10-31T13:42:42;20.00;71.50
3256;DHT22;1640;48.504;9.224;2022-10-31T13:45:14;20.10;71.50
3256;DHT22;1640;48.504;9.224;2022-10-31T13:47:43;20.20;71.30
3256;DHT22;1640;48.504;9.224;2022-10-31T13:50:23;20.40;71.20
3256;DHT22;1640;48.504;9.224;2022-10-31T13:52:51;20.30;71.20
3256;DHT22;1640;48.504;9.224;2022-10-31T13:55:39;20.30;71.50
3256;DHT22;1640;48.504;9.224;2022-10-31T13:58:22;20.50;71.10
3256;DHT22;1640;48.504;9.224;2022-10-31T14:01:13;20.40;71.20
3256;DHT22;1640;48.504;9.224;2022-10-31T14:03:45;20.50;71.20
3256;DHT22;1640;48.504;9.224;2022-10-31T14:06:14;20.40;71.50
3256;DHT22;1640;48.504;9.224;2022-10-31T14:08:48;20.50;71.20
3256;DHT22;1640;48.504;9.224;2022-10-31T14:11:23;20.60;70.90
3256;DHT22;1640;48.504;9.224;2022-10-31T14:13:53;20.80;71.20
3256;DHT22;1640;48.504;9.224;2022-10-31T14:16:24;20.80;71.10
3256;DHT22;1640;48.504;9.224;2022-10-31T14:18:59;20.70;70.90
3256;DHT22;1640;48.504;9.224;2022-10-31T14:21:29;20.50;70.80
3256;DHT22;1640;48.504;9.224;2022-10-31T14:23:57;20.20;71.30
3256;DHT22;1640;48.504;9.224;2022-10-31T14:26:33;20.00;71.50
3256;DHT22;1640;48.504;9.224;2022-10-31T14:29:02;19.80;71.60
3256;DHT22;1640;48.504;9.224;2022-10-31T14:31:34;19.50;71.60
3256;DHT22;1640;48.504;9.224;2022-10-31T14:34:18;19.40;71.60
3256;DHT22;1640;48.504;9.224;2022-10-31T14:36:54;19.30;71.60
3256;DHT22;1640;48.504;9.224;2022-10-31T14:39:29;19.20;71.60
3256;DHT22;1640;48.504;9.224;2022-10-31T14:42:16;19.10;71.60
3256;DHT22;1640;48.504;9.224;2022-10-31T14:47:43;18.90;71.60
3256;DHT22;1640;48.504;9.224;2022-10-31T14:53:13;18.80;70.50
3256;DHT22;1640;48.504;9.224;2022-10-31T14:55:44;18.70;70.20
3256;DHT22;1640;48.504;9.224;2022-10-31T14:58:18;18.70;69.30
3256;DHT22;1640;48.504;9.224;2022-10-31T15:00:47;18.80;69.50
3256;DHT22;1640;48.504;9.224;2022-10-31T15:03:18;18.70;68.60
3256;DHT22;1640;48.504;9.224;2022-10-31T15:05:53;18.70;68.60
3256;DHT22;1640;48.504;9.224;2022-10-31T15:08:34;18.60;67.90
3256;DHT22;1640;48.504;9.224;2022-10-31T15:11:13;18.50;67.20
3256;DHT22;1640;48.504;9.224;2022-10-31T15:13:45;18.40;66.70
3256;DHT22;1640;48.504;9.224;2022-10-31T15:16:16;18.30;65.50
3256;DHT22;1640;48.504;9.224;2022-10-31T15:18:48;18.20;64.90
3256;DHT22;1640;48.504;9.224;2022-10-31T15:21:20;18.00;63.70
3256;DHT22;1640;48.504;9.224;2022-10-31T15:23:50;17.90;62.40
3256;DHT22;1640;48.504;9.224;2022-10-31T15:26:20;17.70;60.00
3256;DHT22;1640;48.504;9.224;2022-10-31T15:28:58;17.50;56.50
3256;DHT22;1640;48.504;9.224;2022-10-31T15:31:28;17.30;53.30
3256;DHT22;1640;48.504;9.224;2022-10-31T15:33:59;17.10;50.20
3256;DHT22;1640;48.504;9.224;2022-10-31T15:36:29;17.00;49.10
3256;DHT22;1640;48.504;9.224;2022-10-31T15:38:57;16.90;41.00
3256;DHT22;1640;48.504;9.224;2022-10-31T15:41:30;16.80;35.30
3256;DHT22;1640;48.504;9.224;2022-10-31T15:44:03;16.70;30.50
3256;DHT22;1640;48.504;9.224;2022-10-31T15:46:32;16.40;27.60
3256;DHT22;1640;48.504;9.224;2022-10-31T15:49:00;16.30;24.10
3256;DHT22;1640;48.504;9.224;2022-10-31T15:51:32;16.10;20.70
3256;DHT22;1640;48.504;9.224;2022-10-31T15:54:00;16.00;18.80
3256;DHT22;1640;48.504;9.224;2022-10-31T15:56:29;15.80;16.40
3256;DHT22;1640;48.504;9.224;2022-10-31T15:58:59;15.80;13.90
3256;DHT22;1640;48.504;9.224;2022-10-31T16:01:29;15.80;9.00
3256;DHT22;1640;48.504;9.224;2022-10-31T16:04:00;15.80;10.80
3256;DHT22;1640;48.504;9.224;2022-10-31T16:06:30;15.70;9.60
3256;DHT22;1640;48.504;9.224;2022-10-31T16:08:57;15.70;8.50
3256;DHT22;1640;48.504;9.224;2022-10-31T16:11:34;15.50;4.80
3256;DHT22;1640;48.504;9.224;2022-10-31T16:14:05;15.50;4.60
3256;DHT22;1640;48.504;9.224;2022-10-31T16:16:45;15.50;3.60
3256;DHT22;1640;48.504;9.224;2022-10-31T16:19:18;15.30;2.90
3256;DHT22;1640;48.504;9.224;2022-10-31T16:21:50;15.30;99.90
3256;DHT22;1640;48.504;9.224;2022-10-31T16:24:22;15.10;99.90
3256;DHT22;1640;48.504;9.224;2022-10-31T16:27:01;15.00;99.90
3256;DHT22;1640;48.504;9.224;2022-10-31T16:29:34;14.90;99.90
3256;DHT22;1640;48.504;9.224;2022-10-31T16:32:03;14.80;99.90
3256;DHT22;1640;48.504;9.224;2022-10-31T16:34:31;14.80;99.90
3256;DHT22;1640;48.504;9.224;2022-10-31T16:37:01;14.60;99.90
3256;DHT22;1640;48.504;9.224;2022-10-31T16:39:29;14.40;99.90
3256;DHT22;1640;48.504;9.224;2022-10-31T16:41:56;14.30;99.90
3256;DHT22;1640;48.504;9.224;2022-10-31T16:44:25;14.20;99.90